Latest Weather Observations for Viewbank

IDV60801

Issued at 5:32 am EDT Saturday 19 October 2019 (issued every 10 minutes, with the page automatically refreshed every 10 minutes)

About weather observations | Map of weather stations | Latest weather observations for VIC | Other Formats
Station Details ID: 086068 Name: VIEWBANK Lat: -37.74 Lon: 145.10 Height: 66.1 m
Data from the previous 72 hours. | See also: Recent months at Viewbank
Date/Time
EDT
Temp
°C
App
Temp
°C
Dew
Point
°C
Rel
Hum
%
Delta-T
°C
Wind Press
QNH
hPa
Press
MSL
hPa
Rain since
9am
mm
Dir  Spd
km/h
Gust
km/h
Spd
kts
Gust
kts
19/05:30am 9.8 6.2 5.2 73 2.1 W 13 26 7 14 1013.1 1013.0 0.4
19/05:00am 9.9 6.8 5.7 75 1.9 W 11 20 6 11 1012.8 1012.7 0.4
19/04:30am 10.0 7.0 5.8 75 1.9 WNW 11 19 6 10 1012.9 1012.8 0.4
19/04:00am 10.0 7.0 6.2 77 1.8 W 11 19 6 10 1012.9 1012.8 0.4
19/03:30am 10.2 8.0 6.2 76 1.9 WNW 7 11 4 6 1013.1 1013.0 0.4
19/03:00am 10.3 6.9 5.9 74 2.0 W 13 22 7 12 1013.2 1013.1 0.4
19/02:30am 10.6 6.8 5.8 72 2.2 W 15 20 8 11 1013.3 1013.2 0.4
19/02:00am 11.1 7.4 6.5 73 2.2 W 15 24 8 13 1013.2 1013.1 0.4
19/01:30am 11.2 8.1 7.1 76 2.0 W 13 20 7 11 1013.4 1013.3 0.4
19/01:00am 11.4 8.4 7.9 79 1.7 W 13 20 7 11 1013.5 1013.4 0.4
19/12:30am 11.2 10.7 10.9 98 0.2 WNW 4 7 2 4 1013.7 1013.6 0.4
19/12:00am 11.0 11.3 10.8 99 0.1 CALM 0 0 0 0 1013.8 1013.7 0.4
 
Date/Time
EDT
Temp
°C
App
Temp
°C
Dew
Point
°C
Rel
Hum
%
Delta-T
°C
Wind Press
QNH
hPa
Press
MSL
hPa
Rain since
9am
mm
Dir  Spd
km/h
Gust
km/h
Spd
kts
Gust
kts
18/11:30pm 11.2 10.8 11.0 99 0.1 W 4 9 2 5 1013.8 1013.7 0.4
18/11:00pm 11.5 10.2 11.3 99 0.1 W 9 11 5 6 1014.0 1013.9 0.4
18/10:30pm 11.3 10.0 11.1 99 0.1 W 9 13 5 7 1013.9 1013.8 0.4
18/10:00pm 11.0 8.0 10.8 99 0.1 WSW 17 33 9 18 1013.9 1013.8 0.4
18/09:30pm 12.6 7.1 9.1 79 1.8 WSW 28 52 15 28 1013.6 1013.5 0.2
18/09:28pm 12.7 7.2 9.0 78 1.9 WSW 28 52 15 28 1013.6 1013.5 0.2
18/09:00pm 13.7 9.7 10.5 81 1.7 WSW 22 39 12 21 1012.9 1012.8 0.2
18/08:30pm 14.2 9.7 10.0 76 2.2 WSW 24 43 13 23 1011.6 1011.6 0.2
18/08:09pm 16.7 12.4 7.1 53 4.8 WSW 19 48 10 26 1010.8 1010.8 0.2
18/08:00pm 19.1 15.4 2.5 33 7.7 W 11 20 6 11 1010.2 1010.2 0.2
18/07:30pm 19.6 15.1 2.0 31 8.1 WNW 15 26 8 14 1009.7 1009.7 0.2
18/07:00pm 20.5 15.6 2.3 30 8.5 NW 17 32 9 17 1009.3 1009.3 0.2
18/06:30pm 21.0 15.2 2.3 29 8.7 NW 22 35 12 19 1009.2 1009.2 0.2
18/06:00pm 21.2 15.0 2.0 28 9.0 NW 24 44 13 24 1009.3 1009.3 0.2
18/05:30pm 20.5 14.8 2.8 31 8.3 NW 22 41 12 22 1009.7 1009.7 0.2
18/05:00pm 21.1 14.3 3.3 31 8.5 NW 28 46 15 25 1009.8 1009.8 0.2
18/04:40pm 21.1 14.3 3.3 31 8.5 NW 28 46 15 25 1010.1 1010.1 0.2
18/04:30pm 21.4 15.2 4.5 33 8.3 NW 26 43 14 23 1010.1 1010.1 0.2
18/04:00pm 20.8 13.7 3.5 32 8.3 NNW 30 56 16 30 1010.4 1010.4 0.2
18/03:31pm 19.9 13.2 3.6 34 7.8 NNW 28 46 15 25 1010.7 1010.7 0.2
18/03:30pm 20.2 14.0 4.3 35 7.7 NW 26 46 14 25 1010.9 1010.9 0.2
18/03:00pm 20.4 14.1 5.6 38 7.4 NNW 28 48 15 26 1011.0 1011.0 0.2
18/02:49pm 19.5 13.0 4.8 38 7.1 NW 28 48 15 26 1011.3 1011.3 0.2
18/02:30pm 19.2 13.0 6.0 42 6.5 NNW 28 43 15 23 1011.8 1011.8 0.2
18/02:00pm 19.1 12.8 5.6 41 6.6 NW 28 52 15 28 1012.4 1012.3 0.2
18/01:34pm 17.9 11.6 5.5 44 6.0 NNW 28 46 15 25 1012.9 1012.8 0.2
18/01:30pm 17.6 11.6 5.5 45 5.9 NNW 26 44 14 24 1012.9 1012.8 0.2
18/01:09pm 17.1 10.8 5.7 47 5.5 NNW 28 50 15 27 1013.3 1013.2 0.2
18/01:00pm 17.2 11.7 5.8 47 5.6 NNW 24 39 13 21 1013.3 1013.2 0.2
18/12:50pm 17.3 11.3 7.1 51 5.1 NNW 28 46 15 25 1013.4 1013.3 0.2
18/12:30pm 17.1 11.5 5.4 46 5.6 N 24 44 13 24 1013.6 1013.5 0.0
18/12:00pm 17.0 11.8 5.3 46 5.6 NNW 22 44 12 24 1014.2 1014.1 0.0
18/11:30am 16.1 10.8 5.1 48 5.2 NNW 22 37 12 20 1014.7 1014.6 0.0
18/11:00am 14.7 10.2 6.0 56 4.2 NNW 19 32 10 17 1015.3 1015.2 0.0
18/10:30am 13.6 8.7 5.3 57 3.9 N 20 33 11 18 1015.4 1015.3 0.0
18/10:00am 12.7 7.8 4.9 59 3.6 N 20 33 11 18 1015.7 1015.6 0.0
18/09:30am 11.9 7.1 4.4 60 3.4 N 19 33 10 18 1015.9 1015.8 0.0
18/09:00am 11.1 6.3 4.6 64 2.9 NNW 19 35 10 19 1016.0 1015.9 1.2
18/08:30am 10.5 6.4 4.6 67 2.7 N 15 24 8 13 1016.1 1016.0 1.2
18/08:00am 8.9 6.7 6.0 82 1.3 N 7 11 4 6 1016.0 1015.9 1.2
18/07:30am 7.4 6.4 7.3 99 0.0 NNE 2 7 1 4 1016.0 1015.9 1.2
18/07:00am 5.8 4.8 5.7 99 0.0 CALM 0 6 0 3 1015.8 1015.7 1.2
18/06:30am 6.0 3.7 5.9 99 0.0 NNE 7 11 4 6 1015.7 1015.6 1.2
18/06:00am 6.6 3.3 6.2 97 0.2 NNE 13 19 7 10 1015.8 1015.7 1.2
18/05:30am 6.7 3.7 6.0 95 0.3 NNE 11 17 6 9 1015.8 1015.7 1.2
18/05:00am 7.0 4.0 5.8 92 0.5 NNE 11 13 6 7 1015.6 1015.5 1.2
18/04:30am 7.6 4.9 5.7 88 0.9 N 9 13 5 7 1015.9 1015.8 1.2
18/04:00am 8.3 6.0 5.8 84 1.1 N 7 11 4 6 1016.0 1015.9 1.2
18/03:30am 8.3 5.6 5.4 82 1.3 NW 9 11 5 6 1016.3 1016.2 1.2
18/03:00am 8.5 6.1 5.1 79 1.5 WNW 7 11 4 6 1016.5 1016.4 1.2
18/02:30am 8.9 6.1 5.3 78 1.6 WNW 9 13 5 7 1016.6 1016.5 1.2
18/02:00am 8.9 5.9 6.0 82 1.3 WNW 11 19 6 10 1016.5 1016.4 1.2
18/01:30am 9.4 7.4 7.0 85 1.1 WNW 7 13 4 7 1016.7 1016.6 1.2
18/01:00am 9.3 6.9 7.1 86 1.0 WNW 9 15 5 8 1016.9 1016.8 1.2
18/12:30am 9.7 6.9 7.0 83 1.3 W 11 17 6 9 1017.0 1016.9 1.2
18/12:00am 10.6 8.0 7.7 82 1.4 W 11 17 6 9 1017.1 1017.0 1.2
 
Date/Time
EDT
Temp
°C
App
Temp
°C
Dew
Point
°C
Rel
Hum
%
Delta-T
°C
Wind Press
QNH
hPa
Press
MSL
hPa
Rain since
9am
mm
Dir  Spd
km/h
Gust
km/h
Spd
kts
Gust
kts
17/11:30pm 10.9 8.2 7.4 79 1.7 WSW 11 20 6 11 1017.2 1017.1 1.2
17/11:00pm 10.9 7.4 7.2 78 1.8 W 15 24 8 13 1017.1 1017.0 1.2
17/10:30pm 11.1 6.9 7.6 79 1.7 W 19 28 10 15 1017.0 1016.9 1.2
17/10:00pm 11.6 7.4 7.3 75 2.1 W 19 35 10 19 1016.7 1016.6 1.2
17/09:30pm 11.9 7.4 6.8 71 2.4 W 20 32 11 17 1016.3 1016.2 1.2
17/09:00pm 12.2 8.4 6.0 66 2.9 WSW 15 28 8 15 1015.7 1015.6 1.2
17/08:30pm 12.6 7.9 6.0 64 3.1 W 20 32 11 17 1015.1 1015.0 1.2
17/08:00pm 12.9 9.7 6.7 66 3.0 W 13 28 7 15 1014.4 1014.3 1.2
17/07:30pm 12.7 8.9 7.6 71 2.5 WSW 17 26 9 14 1014.0 1013.9 1.2
17/07:00pm 12.8 8.7 7.9 72 2.4 WSW 19 28 10 15 1013.4 1013.3 1.2
17/06:30pm 13.1 8.7 7.5 69 2.7 W 20 32 11 17 1012.8 1012.7 1.2
17/06:00pm 12.7 6.7 7.0 68 2.8 WSW 28 41 15 22 1012.3 1012.2 1.2
17/05:30pm 13.3 6.9 6.9 65 3.1 W 30 50 16 27 1011.3 1011.3 1.2
17/05:15pm 14.2 7.9 5.6 56 4.1 W 28 54 15 29 1010.6 1010.6 1.2
17/05:00pm 14.4 9.6 5.7 56 4.1 W 20 35 11 19 1010.5 1010.5 1.2
17/04:30pm 14.3 8.5 6.2 58 3.9 W 26 39 14 21 1010.4 1010.4 1.2
17/04:00pm 14.7 8.5 6.3 57 4.1 W 28 50 15 27 1010.3 1010.3 1.2
17/03:49pm 13.6 7.5 6.5 62 3.4 W 28 50 15 27 1010.2 1010.2 1.2
17/03:30pm 14.5 9.2 6.6 59 3.8 W 24 43 13 23 1010.2 1010.2 1.2
17/03:11pm 14.2 7.9 5.6 56 4.1 W 28 50 15 27 1009.9 1009.9 1.2
17/03:00pm 14.2 8.5 6.8 61 3.6 W 26 46 14 25 1010.1 1010.1 1.2
17/02:45pm 13.4 7.2 6.3 62 3.4 W 28 46 15 25 1010.4 1010.4 1.2
17/02:30pm 12.7 6.9 6.3 65 3.0 W 26 46 14 25 1010.5 1010.5 1.2
17/02:00pm 11.0 7.0 8.1 82 1.4 WNW 19 35 10 19 1010.8 1010.8 1.2
17/01:33pm 10.8 4.5 5.8 71 2.3 W 28 50 15 27 1010.5 1010.5 0.8
17/01:30pm 11.1 5.2 5.8 70 2.5 W 26 50 14 27 1010.5 1010.5 0.8
17/01:00pm 10.7 3.7 5.9 72 2.2 W 32 56 17 30 1010.2 1010.2 0.8
17/12:57pm 12.2 5.8 5.1 62 3.3 W 28 50 15 27 1009.8 1009.8 0.6
17/12:30pm 15.2 9.4 4.6 49 5.0 WNW 24 37 13 20 1009.5 1009.5 0.4
17/12:00pm 13.3 7.9 4.7 56 4.0 W 22 39 12 21 1009.7 1009.7 0.4
17/11:30am 13.2 8.2 6.3 63 3.3 W 22 35 12 19 1009.8 1009.8 0.4
17/11:00am 11.9 7.4 6.0 67 2.8 W 19 30 10 16 1009.8 1009.8 0.4
17/10:30am 11.4 6.2 5.7 68 2.7 W 22 33 12 18 1009.7 1009.7 0.4
17/10:00am 9.8 6.4 7.6 86 1.1 WNW 15 24 8 13 1009.8 1009.8 0.4
17/09:30am 10.2 5.5 5.2 71 2.3 WNW 19 33 10 18 1009.5 1009.5 0.0
17/09:00am 10.4 6.4 4.8 68 2.5 WNW 15 26 8 14 1009.1 1009.1 4.2
17/08:30am 10.3 6.0 5.1 70 2.4 WNW 17 28 9 15 1008.8 1008.8 4.2
17/08:00am 10.0 6.2 5.6 74 2.0 NW 15 26 8 14 1008.6 1008.6 4.2
17/07:30am 9.4 6.9 6.5 82 1.4 NNW 9 13 5 7 1008.1 1008.1 4.2
17/07:00am 8.9 6.6 7.4 90 0.7 NW 9 17 5 9 1007.5 1007.5 4.2
17/06:30am 9.0 6.4 7.8 92 0.6 WNW 11 17 6 9 1007.1 1007.1 4.2
17/06:00am 9.3 4.8 6.9 85 1.1 W 20 32 11 17 1006.9 1006.9 4.2
17/05:30am 10.0 7.7 8.9 93 0.5 WNW 11 17 6 9 1006.8 1006.8 4.2
17/05:00am 10.2 8.4 9.3 94 0.5 WNW 9 15 5 8 1006.8 1006.8 3.8
17/04:30am 10.5 7.7 8.6 88 0.9 W 13 20 7 11 1006.8 1006.8 3.6
17/04:00am 11.1 8.4 10.3 95 0.4 NW 15 24 8 13 1006.7 1006.7 3.6
17/03:30am 10.8 8.6 10.8 100 0.0 NNW 13 22 7 12 1006.7 1006.7 3.6
17/03:00am 9.8 9.0 9.8 100 0.0 NE 4 9 2 5 1006.8 1006.8 3.6
17/02:30am 9.8 9.8 9.8 100 0.0 CALM 0 0 0 0 1006.8 1006.8 3.6
17/02:00am 9.9 9.9 9.9 100 0.0 CALM 0 0 0 0 1007.2 1007.2 3.6
17/01:30am 10.3 9.3 10.3 100 0.0 NNE 6 9 3 5 1007.9 1007.9 3.6
17/01:00am 10.5 9.6 10.5 100 0.0 NNW 6 9 3 5 1008.3 1008.3 3.6
17/12:30am 10.8 10.3 10.8 100 0.0 W 4 7 2 4 1008.5 1008.5 3.6
17/12:00am 11.3 11.0 11.3 100 0.0 WSW 4 9 2 5 1008.3 1008.3 3.6
 
Date/Time
EDT
Temp
°C
App
Temp
°C
Dew
Point
°C
Rel
Hum
%
Delta-T
°C
Wind Press
QNH
hPa
Press
MSL
hPa
Rain since
9am
mm
Dir  Spd
km/h
Gust
km/h
Spd
kts
Gust
kts
16/11:30pm 11.8 11.0 11.8 100 0.0 NNW 7 19 4 10 1009.2 1009.2 3.2
16/11:00pm 11.7 12.2 11.7 100 0.0 CALM 0 6 0 3 1008.8 1008.8 3.2
16/10:30pm 11.8 12.4 11.8 100 0.0 CALM 0 4 0 2 1009.2 1009.2 3.2
16/10:00pm 11.9 11.7 11.9 100 0.0 N 4 7 2 4 1009.2 1009.2 3.2
16/09:30pm 12.4 13.2 12.4 100 0.0 CALM 0 0 0 0 1009.1 1009.1 3.2
16/09:00pm 13.0 12.8 13.0 100 0.0 N 6 9 3 5 1009.0 1009.0 3.2
16/08:30pm 13.4 13.7 13.4 100 0.0 NNE 4 7 2 4 1009.1 1009.1 3.2
16/08:00pm 13.3 14.0 13.3 100 0.0 SSW 2 6 1 3 1009.2 1009.2 3.2
16/07:30pm 13.2 14.2 13.2 100 0.0 CALM 0 0 0 0 1008.7 1008.7 3.2
16/07:00pm 13.4 13.7 13.4 100 0.0 WSW 4 7 2 4 1008.4 1008.4 3.0
16/06:30pm 13.6 13.0 13.6 100 0.0 SSW 9 11 5 6 1008.0 1008.0 2.0
16/06:00pm 13.8 14.6 13.8 100 0.0 WNW 2 6 1 3 1007.6 1007.6 1.8
16/05:30pm 13.7 13.5 13.5 99 0.1 SW 7 19 4 10 1007.5 1007.5 1.8
16/05:00pm 14.6 12.7 11.9 84 1.5 WSW 13 22 7 12 1007.7 1007.7 1.0
16/04:30pm 15.2 13.1 11.2 77 2.1 SW 13 22 7 12 1007.8 1007.8 0.6
16/04:00pm 18.8 15.1 9.6 55 4.9 NNW 19 28 10 15 1007.1 1007.1 0.0
16/03:30pm 19.5 16.6 9.7 53 5.2 NNW 15 26 8 14 1007.4 1007.4 0.0
16/03:00pm 17.6 15.4 10.9 65 3.6 NNE 13 26 7 14 1008.0 1008.0 0.0
16/02:30pm 17.3 15.5 10.7 65 3.5 NE 11 17 6 9 1008.5 1008.5 0.0
16/02:00pm 16.9 14.3 10.7 67 3.3 NNE 15 28 8 15 1009.2 1009.2 0.0
16/01:30pm 17.1 14.5 10.7 66 3.4 N 15 24 8 13 1009.3 1009.3 0.0
16/01:00pm 17.5 14.5 10.6 64 3.7 N 17 30 9 16 1009.7 1009.7 0.0
16/12:30pm 15.6 13.7 10.6 72 2.7 N 11 20 6 11 1009.8 1009.8 0.0
16/12:00pm 15.3 13.5 10.9 75 2.3 N 11 22 6 12 1010.1 1010.1 0.0
16/11:30am 14.9 13.6 11.3 79 1.9 N 9 15 5 8 1010.4 1010.4 0.0
16/11:00am 14.6 13.3 11.4 81 1.7 NE 9 19 5 10 1010.0 1010.0 0.0
16/10:30am 14.2 13.4 11.2 82 1.6 NNE 6 11 3 6 1010.9 1010.9 0.0
16/10:00am 14.0 14.1 12.6 91 0.8 NNE 4 9 2 5 1011.1 1011.1 0.0
16/09:30am 13.2 12.9 11.4 89 1.0 NNE 4 7 2 4 1011.2 1011.2 0.0
16/09:00am 12.7 13.1 11.3 91 0.7 CALM 0 0 0 0 1010.8 1010.8 0.0
16/08:30am 12.5 12.6 11.4 93 0.6 E 2 6 1 3 1010.8 1010.8 0.0
16/08:00am 12.1 12.5 11.2 94 0.5 CALM 0 0 0 0 1011.2 1011.2 0.0
16/07:30am 12.3 11.8 10.9 91 0.7 N 4 9 2 5 1011.3 1011.3 0.0
16/07:00am 11.8 12.1 10.9 94 0.5 CALM 0 6 0 3 1011.1 1011.1 0.0
16/06:30am 12.2 12.3 10.3 88 1.0 CALM 0 0 0 0 1011.5 1011.5 0.0
16/06:00am 12.2 12.2 9.9 86 1.2 CALM 0 0 0 0 1011.2 1011.2 0.0

Other formats

Comma delimited format used in spreadsheet applications
http://www.bom.gov.au/fwo/IDV60801/IDV60801.95874.axf

JavaScript Object Notation format (JSON) in row-major order
http://www.bom.gov.au/fwo/IDV60801/IDV60801.95874.json

Data quality

Most of these data are generated automatically and are frequently updated. Quality checks on data are not normally performed. It is possible for incorrect values to appear. Refer to information at About Latest Weather Observations and please check the disclaimer before using these data.